Погода METAR - Абакан

Код аэропорта ICAO:
Кемерово, Абакан, Красноярск, Новосибирск
Код METAR: UNAA 230330Z 18002MPS 8000 NSC M04/M06 Q1028 R20/290055 NOSIG RMK QFE748
TAF UNAA 230150Z 2303/2403 19003G10MPS 9999 SCT025CB 
     TEMPO 2309/2315 4000 -SHRASN 
     FM231500 18003MPS 9999 SCT040 
     TEMPO 2315/2403 3200 FU BR
       

Погода - Сейчас

Время: 2019-10-23 10:30, местное
Направление ветра: Юг (180°)
Скорость ветра: 2 м/с
Видимость:
Температура: -4°C
Точка росы: -6°C
Атмосферное давление: 1028 гПа

Архив погоды

Ошибка.Сообщения в формате TAF пока не поддерживаются: TAF AMD UNAA 150155Z 1503/1603 19003G10MPS 9999 SCT040 BECMG 1514/1516 SCT030CB TEMPO 1518/1603 3500 -SHRA BKN020CB
Ошибка.Сообщения в формате TAF пока не поддерживаются: TAF UNAA 141953Z 1421/1521 10002MPS 3100 BR FU NSC TEMPO 1421/1503 0300 FZFG SCT003 FM150300 12003G10MPS 9999 SCT040 BECMG 1517/1518 SCT030CB TEMPO 1518/1521 4000 -SHRA
Ошибка.Сообщения в формате TAF пока не поддерживаются: TAF UNAA 140454Z 1406/1506 17003G08MPS CAVOK FM141100 08002MPS 3200 FU SCT040 TEMPO 1411/1503 1700 BR FU BECMG 1503/1504 9999 NSW
Ошибка.Сообщения в формате TAF пока не поддерживаются: TAF UNAA 140150Z 1403/1503 12003MPS 9999 SCT040 TEMPO 1403/1404 3200 BR FU TEMPO 1410/1503 3100 BR FU
Ошибка.Сообщения в формате TAF пока не поддерживаются: TAF UNAA 111650Z 1118/1218 36003MPS 9999 SCT030 TEMPO 1118/1121 3100 BR FU TEMPO 1121/1203 0300 FZFG
Время, местное Направление Скорость, м/с Температура, °C Точка росы, °C Давление, гПа
2019-10-23 10:30 Ю (180°) 2 -4 -6 1028
2019-10-23 08:30 Штиль 0 -6 -7 1028
2019-10-23 07:30 Штиль 0 -7 -8 1028
2019-10-20 13:30 С (350°) 6 -1 -5 1021
2019-10-19 19:30 СЗ (310°) 2 1 -1 1018
2019-10-19 13:00 ЮЗ (210°) 6 4 -1 1015
0
0
0
0
0
2019-10-07 14:30 Переменный 1 17 7 1023
2019-10-05 05:00 Штиль 0 0 -2 1024
2019-10-04 08:00 Штиль 0 -4 -5 1028
2019-10-02 16:30 Ю (180°) 2 9 -4 1033
2019-09-30 23:30 ЮЗ (230°) 4 3 -4 1023
2019-09-29 18:30 В (100°) 3 8 4 1006
2019-09-29 04:30 С (10°) 2 5 3 1010
2019-09-23 06:00 ЮЮВ (150°) 1 4 4 1012
2019-09-22 07:30 Ю (190°) 1 2 2 1025
2019-09-21 19:00 Штиль 0 14 6 1021
2019-09-20 15:30 Ю (190°) 4 25 12 1011
2019-09-19 03:30 ЮЮВ (150°) 3 13 11 1020
2019-09-18 10:00 ЮЮЗ (200°) 5 13 10 1021
2019-09-14 08:30 С (360°) 2 6 2 1020
2019-09-10 15:30 ЮЮВ (160°) 4 18 11 1012
2019-09-10 14:00 ЮЗ (210°) 6 15 10 1013
2019-09-08 16:00 Штиль 0 19 6 1015
2019-09-07 21:30 СЗ (320°) 1 9 6 1017
2019-09-06 14:30 Переменный 1 17 10 1017
2019-09-04 19:00 Ю (190°) 3 13 10 1015
2019-09-03 09:00 Ю (190°) 3 15 11 1013
2019-09-03 04:00 ССЗ (340°) 3 15 13 1012
2019-09-02 20:30 Штиль 0 17 13 1012
2019-08-31 22:00 С (10°) 3 16 14 1006
2019-08-30 00:30 Штиль 0 15 13 1011
2019-08-29 20:30 С (10°) 2 19 14 1012
2019-08-29 00:00 СЗ (320°) 1 12 12 1018
2019-08-28 18:30 С (10°) 3 20 15 1017
2019-08-28 09:00 С (360°) 1 17 15 1014
2019-08-26 20:00 С (10°) 2 19 14 1016
2019-08-24 09:30 ЮЗ (220°) 6 12 11 1014
2019-08-23 20:00 ЗЮЗ (240°) 7 17 9 1011
2019-08-22 09:00 Переменный 1 15 13 1012
2019-08-21 09:30 Переменный 1 18 12 1016
2019-08-21 05:00 ЮЮЗ (200°) 2 13 11 1016
2019-08-20 12:00 В (90°) 2 21 14 1014
2019-08-19 00:30 ЮЗ (220°) 1 13 10 1014